kanjukumania.com alexa rank chart, kanjukumania.com alexa rank daily changes

kanjukumania.com alexa rank chart, kanjukumania.com alexa rank daily changes

kanjukumania.com
Actual rank:
86 537

RANK HISTORY

Date Rank Diff
2018/07/19 86 537 +33 013
2018/07/18 53 524 -76 327
2018/07/17 129 851 -134 256
2018/07/16 264 107 +225 493
2018/07/14 38 614 -112 766
2018/07/13 151 380 +77 337
2018/07/12 74 043 -63 679
2018/07/11 137 722 +37 215
2018/07/10 100 507 -8 458
2018/07/09 108 965 +32 059
2018/07/08 76 906 +806
2018/07/06 76 100 -651 620
2018/07/05 727 720 +629 871
2018/07/04 97 849 -472 203
2018/07/03 570 052 +459 278
2018/07/02 110 774 +2 324
2018/07/01 108 450 -50 980
2018/06/30 159 430 -611 590
2018/06/27 771 020 +709 209
2018/06/25 61 811 -7 404
2018/06/22 69 215 -890 105
2018/06/21 959 320 +871 291
2018/06/20 88 029 +37 116
2018/06/19 50 913 +10 562
2018/06/18 40 351 -512 195
2018/06/17 552 546 +386 012
2018/06/16 166 534 -448 747
2018/06/12 615 281 -248 166
2018/06/10 863 447 +765 972
2018/06/09 97 475 -33 597
2018/06/08 131 072 -842 574
2018/06/07 973 646 +806 008
2018/06/06 167 638 -386 296
2018/06/05 553 934 +425 104
2018/06/04 128 830 -13 787
2018/06/03 142 617 -369 238
2018/06/01 511 855 +360 363
2018/05/31 151 492 +57 260
2018/05/30 94 232 +22 104
2018/05/29 72 128 -2 308
2018/05/27 74 436 -478 810
2018/05/26 553 246 +446 849
2018/05/25 106 397 +53 767
2018/05/24 52 630 -226 281
2018/05/23 278 911 +208 470
2018/05/22 70 441 -41 047
2018/05/20 111 488

WIDGET FOR YOUR SITE

DOMAINS WITH THE NEAREST RANK

Domain Rank
ignitioncasino.eu 86 532
coilart.net 86 533
collegechoice.net 86 534
blazingboost.com 86 535
taecel.com 86 536
kanjukumania.com 86 537
easystore.co 86 538
votervoice.net 86 539
egged.co.il 86 540
happycar.fr 86 541
lmctruck.com 86 542

DOMAINS WITH THE NEAREST RANK BY TLD .com

Domain Rank
bpm-power.com 86 529
met-mother.com 86 530
rest-ua.com 86 531
blazingboost.com 86 535
taecel.com 86 536
kanjukumania.com 86 537
lmctruck.com 86 542
lostpix.com 86 544
overnitenet.com 86 546
reyada.com 86 547
pella.com 86 548